PWSweather.com
Personal Weather Stations
Station Observations
KOHAVON11
Long Road Station, Avon, OH 44011

Long Road StationAvon, OH 44011

Lat: 41.437, Lon: -82.0477

Elevation: 686

Station Type: Davis Vantage Pro2

http://www.avon-weather.com

Latest ConditionsUpdated 9:11:57 PM EDT Monday, Mar 25, 2019
Currently Today's Max Today's Min Today's Average
Temperature 32.3°F0.2°C 45.6°F7.6°C 32.3°F0.2°C 37.1°F2.8°C
Dew Point 15.4°F-9.2°C 39.4°F4.1°C 15.4°F-9.2°C 26.2°F-3.2°C
Winds 3.0 mph 4.8 kmh 24.0 mph -38.6 kmh - - 8.2 mph 13.2 kmh
Wind Gusts 14.0 mph22.5 kmh 29.0 mph46.7 kmh - -
Humidity 50% 82% 43% 66%
Pressure 30.27 in1025.1 mb 30.27 in1025.1 mb 30.08 in1018.6 mb -
Hour Temp Dew Point Humidity Winds Wind Gusts Pressure Precip Precip Rate Daily Precip Total
09:11 PM 32.3°F0.2°C 15.4°F-9.2°C 50% 3.0 mph 4.8 kmh 14.0 mph22.5 kmh 30.27 in1025.1 mb 0.00 in0.0 mm 0.00 in0.0 mm 0.00 in0.0 mm
09:06 PM 32.4°F0.2°C 15.5°F-9.2°C 50% 5.0 mph NNE8.0 kmh NNE 14.0 mph22.5 kmh 30.27 in1025.1 mb 0.00 in0.0 mm 0.00 in0.0 mm 0.00 in0.0 mm
09:01 PM 32.6°F0.3°C 16.1°F-8.8°C 51% 5.0 mph N8.0 kmh N 14.0 mph22.5 kmh 30.26 in1024.7 mb 0.00 in0.0 mm 0.00 in0.0 mm 0.00 in0.0 mm
08:56 PM 32.7°F0.4°C 16.2°F-8.8°C 51% 5.0 mph NNE8.0 kmh NNE 14.0 mph22.5 kmh 30.26 in1024.7 mb 0.00 in0.0 mm 0.00 in0.0 mm 0.00 in0.0 mm
08:51 PM 32.8°F0.4°C 16.3°F-8.7°C 51% 8.0 mph N12.9 kmh N 14.0 mph22.5 kmh 30.26 in1024.7 mb 0.00 in0.0 mm 0.00 in0.0 mm 0.00 in0.0 mm
08:46 PM 32.8°F0.4°C 16.8°F-8.4°C 52% 7.0 mph NE11.3 kmh NE 13.0 mph20.9 kmh 30.26 in1024.7 mb 0.00 in0.0 mm 0.00 in0.0 mm 0.00 in0.0 mm
08:41 PM 32.8°F0.4°C 17.2°F-8.2°C 53% 8.0 mph NNE12.9 kmh NNE 11.0 mph17.7 kmh 30.25 in1024.4 mb 0.00 in0.0 mm 0.00 in0.0 mm 0.00 in0.0 mm
08:36 PM 32.8°F0.4°C 17.2°F-8.2°C 53% 3.0 mph NNE4.8 kmh NNE 11.0 mph17.7 kmh 30.25 in1024.4 mb 0.00 in0.0 mm 0.00 in0.0 mm 0.00 in0.0 mm
08:31 PM 32.8°F0.4°C 18.1°F-7.7°C 55% 11.0 mph N17.7 kmh N 12.0 mph19.3 kmh 30.25 in1024.4 mb 0.00 in0.0 mm 0.00 in0.0 mm 0.00 in0.0 mm
08:26 PM 32.9°F0.5°C 19.5°F-6.9°C 58% 4.0 mph N6.4 kmh N 12.0 mph19.3 kmh 30.25 in1024.4 mb 0.00 in0.0 mm 0.00 in0.0 mm 0.00 in0.0 mm
08:21 PM 33.2°F0.7°C 19.8°F-6.8°C 58% 4.0 mph NNW6.4 kmh NNW 12.0 mph19.3 kmh 30.24 in1024.0 mb 0.00 in0.0 mm 0.00 in0.0 mm 0.00 in0.0 mm
08:16 PM 33.4°F0.8°C 20.0°F-6.7°C 58% 3.0 mph NE4.8 kmh NE 12.0 mph19.3 kmh 30.24 in1024.0 mb 0.00 in0.0 mm 0.00 in0.0 mm 0.00 in0.0 mm
08:11 PM 33.6°F0.9°C 19.7°F-6.8°C 57% 6.0 mph NNW9.7 kmh NNW 8.0 mph12.9 kmh 30.24 in1024.0 mb 0.00 in0.0 mm 0.00 in0.0 mm 0.00 in0.0 mm
08:06 PM 33.8°F1.0°C 19.5°F-6.9°C 56% 3.0 mph NE4.8 kmh NE 9.0 mph14.5 kmh 30.24 in1024.0 mb 0.00 in0.0 mm 0.00 in0.0 mm 0.00 in0.0 mm
08:01 PM 34.1°F1.2°C 19.3°F-7.1°C 55% 3.0 mph N4.8 kmh N 9.0 mph14.5 kmh 30.24 in1024.0 mb 0.00 in0.0 mm 0.00 in0.0 mm 0.00 in0.0 mm
07:56 PM 34.3°F1.3°C 19.1°F-7.2°C 54% 3.0 mph NNW4.8 kmh NNW 9.0 mph14.5 kmh 30.24 in1024.0 mb 0.00 in0.0 mm 0.00 in0.0 mm 0.00 in0.0 mm
07:51 PM 34.6°F1.4°C 19.4°F-7.0°C 54% 2.0 mph NNE3.2 kmh NNE 9.0 mph14.5 kmh 30.23 in1023.7 mb 0.00 in0.0 mm 0.00 in0.0 mm 0.00 in0.0 mm
07:46 PM 34.8°F1.6°C 18.6°F-7.4°C 52% 3.0 mph N4.8 kmh N 9.0 mph14.5 kmh 30.23 in1023.7 mb 0.00 in0.0 mm 0.00 in0.0 mm 0.00 in0.0 mm
07:41 PM 35.1°F1.7°C 18.0°F-7.8°C 50% 7.0 mph NNW11.3 kmh NNW 9.0 mph14.5 kmh 30.23 in1023.7 mb 0.00 in0.0 mm 0.00 in0.0 mm 0.00 in0.0 mm
07:36 PM 35.5°F1.9°C 17.8°F-7.9°C 49% 5.0 mph N8.0 kmh N 10.0 mph16.1 kmh 30.23 in1023.7 mb 0.00 in0.0 mm 0.00 in0.0 mm 0.00 in0.0 mm
07:31 PM 35.7°F2.1°C 17.5°F-8.1°C 48% 5.0 mph NNE8.0 kmh NNE 10.0 mph16.1 kmh 30.23 in1023.7 mb 0.00 in0.0 mm 0.00 in0.0 mm 0.00 in0.0 mm
07:26 PM 35.8°F2.1°C 17.1°F-8.3°C 47% 4.0 mph NNE6.4 kmh NNE 10.0 mph16.1 kmh 30.23 in1023.7 mb 0.00 in0.0 mm 0.00 in0.0 mm 0.00 in0.0 mm
07:21 PM 35.9°F2.2°C 17.2°F-8.2°C 47% 4.0 mph NE6.4 kmh NE 10.0 mph16.1 kmh 30.23 in1023.7 mb 0.00 in0.0 mm 0.00 in0.0 mm 0.00 in0.0 mm
07:16 PM 36.1°F2.3°C 17.4°F-8.1°C 47% 4.0 mph NNE6.4 kmh NNE 10.0 mph16.1 kmh 30.22 in1023.4 mb 0.00 in0.0 mm 0.00 in0.0 mm 0.00 in0.0 mm
07:11 PM 36.1°F2.3°C 16.9°F-8.4°C 46% 3.0 mph NE4.8 kmh NE 10.0 mph16.1 kmh 30.22 in1023.4 mb 0.00 in0.0 mm 0.00 in0.0 mm 0.00 in0.0 mm
07:06 PM 36.2°F2.3°C 16.4°F-8.7°C 45% 5.0 mph NE8.0 kmh NE 12.0 mph19.3 kmh 30.22 in1023.4 mb 0.00 in0.0 mm 0.00 in0.0 mm 0.00 in0.0 mm
07:01 PM 36.2°F2.3°C 15.9°F-8.9°C 44% 5.0 mph NE8.0 kmh NE 12.0 mph19.3 kmh 30.22 in1023.4 mb 0.00 in0.0 mm 0.00 in0.0 mm 0.00 in0.0 mm
06:56 PM 36.3°F2.4°C 16.5°F-8.6°C 45% 6.0 mph N9.7 kmh N 13.0 mph20.9 kmh 30.21 in1023.0 mb 0.00 in0.0 mm 0.00 in0.0 mm 0.00 in0.0 mm
06:51 PM 36.4°F2.4°C 16.6°F-8.6°C 45% 3.0 mph NE4.8 kmh NE 13.0 mph20.9 kmh 30.21 in1023.0 mb 0.00 in0.0 mm 0.00 in0.0 mm 0.00 in0.0 mm
06:46 PM 36.5°F2.5°C 16.2°F-8.8°C 44% 6.0 mph NE9.7 kmh NE 15.0 mph24.1 kmh 30.21 in1023.0 mb 0.00 in0.0 mm 0.00 in0.0 mm 0.00 in0.0 mm
06:41 PM 36.5°F2.5°C 15.6°F-9.1°C 43% 8.0 mph NE12.9 kmh NE 15.0 mph24.1 kmh 30.21 in1023.0 mb 0.00 in0.0 mm 0.00 in0.0 mm 0.00 in0.0 mm
06:36 PM 36.6°F2.6°C 15.7°F-9.1°C 43% 6.0 mph NE9.7 kmh NE 15.0 mph24.1 kmh 30.21 in1023.0 mb 0.00 in0.0 mm 0.00 in0.0 mm 0.00 in0.0 mm
06:31 PM 36.6°F2.6°C 15.7°F-9.1°C 43% 11.0 mph NE17.7 kmh NE 15.0 mph24.1 kmh 30.21 in1023.0 mb 0.00 in0.0 mm 0.00 in0.0 mm 0.00 in0.0 mm
06:26 PM 36.7°F2.6°C 16.3°F-8.7°C 44% 4.0 mph NE6.4 kmh NE 13.0 mph20.9 kmh 30.20 in1022.7 mb 0.00 in0.0 mm 0.00 in0.0 mm 0.00 in0.0 mm
06:21 PM 36.7°F2.6°C 16.3°F-8.7°C 44% 4.0 mph NE6.4 kmh NE 14.0 mph22.5 kmh 30.20 in1022.7 mb 0.00 in0.0 mm 0.00 in0.0 mm 0.00 in0.0 mm
06:16 PM 36.7°F2.6°C 16.9°F-8.4°C 45% 8.0 mph NE12.9 kmh NE 14.0 mph22.5 kmh 30.20 in1022.7 mb 0.00 in0.0 mm 0.00 in0.0 mm 0.00 in0.0 mm
06:11 PM 36.7°F2.6°C 17.4°F-8.1°C 46% 11.0 mph ENE17.7 kmh ENE 14.0 mph22.5 kmh 30.20 in1022.7 mb 0.00 in0.0 mm 0.00 in0.0 mm 0.00 in0.0 mm
06:06 PM 36.8°F2.7°C 17.5°F-8.1°C 46% 9.0 mph ENE14.5 kmh ENE 14.0 mph22.5 kmh 30.20 in1022.7 mb 0.00 in0.0 mm 0.00 in0.0 mm 0.00 in0.0 mm
06:01 PM 36.8°F2.7°C 17.0°F-8.3°C 45% 10.0 mph NNE16.1 kmh NNE 14.0 mph22.5 kmh 30.20 in1022.7 mb 0.00 in0.0 mm 0.00 in0.0 mm 0.00 in0.0 mm
05:56 PM 37.1°F2.8°C 17.8°F-7.9°C 46% 12.0 mph NE19.3 kmh NE 14.0 mph22.5 kmh 30.19 in1022.4 mb 0.00 in0.0 mm 0.00 in0.0 mm 0.00 in0.0 mm
05:51 PM 37.1°F2.8°C 17.8°F-7.9°C 46% 7.0 mph ENE11.3 kmh ENE 13.0 mph20.9 kmh 30.19 in1022.4 mb 0.00 in0.0 mm 0.00 in0.0 mm 0.00 in0.0 mm
05:46 PM 37.1°F2.8°C 17.8°F-7.9°C 46% 5.0 mph ENE8.0 kmh ENE 14.0 mph22.5 kmh 30.19 in1022.4 mb 0.00 in0.0 mm 0.00 in0.0 mm 0.00 in0.0 mm
05:41 PM 37.1°F2.8°C 17.8°F-7.9°C 46% 4.0 mph NNE6.4 kmh NNE 14.0 mph22.5 kmh 30.19 in1022.4 mb 0.00 in0.0 mm 0.00 in0.0 mm 0.00 in0.0 mm
05:36 PM 37.1°F2.8°C 18.8°F-7.3°C 48% 5.0 mph NNE8.0 kmh NNE 14.0 mph22.5 kmh 30.19 in1022.4 mb 0.00 in0.0 mm 0.00 in0.0 mm 0.00 in0.0 mm
05:31 PM 37.2°F2.9°C 18.4°F-7.6°C 47% 8.0 mph ENE12.9 kmh ENE 14.0 mph22.5 kmh 30.20 in1022.7 mb 0.00 in0.0 mm 0.00 in0.0 mm 0.00 in0.0 mm
05:26 PM 37.3°F2.9°C 17.4°F-8.1°C 45% 9.0 mph NE14.5 kmh NE 12.0 mph19.3 kmh 30.19 in1022.4 mb 0.00 in0.0 mm 0.00 in0.0 mm 0.00 in0.0 mm
05:12 PM 37.4°F3.0°C 18.0°F-7.8°C 46% 9.0 mph NE14.5 kmh NE 16.0 mph25.7 kmh 30.19 in1022.4 mb 0.00 in0.0 mm 0.00 in0.0 mm 0.00 in0.0 mm
05:07 PM 37.5°F3.1°C 18.1°F-7.7°C 46% 10.0 mph ENE16.1 kmh ENE 16.0 mph25.7 kmh 30.19 in1022.4 mb 0.00 in0.0 mm 0.00 in0.0 mm 0.00 in0.0 mm
05:02 PM 37.6°F3.1°C 17.7°F-7.9°C 45% 4.0 mph NE6.4 kmh NE 16.0 mph25.7 kmh 30.19 in1022.4 mb 0.00 in0.0 mm 0.00 in0.0 mm 0.00 in0.0 mm
04:57 PM 37.7°F3.2°C 18.8°F-7.3°C 47% 8.0 mph NE12.9 kmh NE 17.0 mph27.4 kmh 30.19 in1022.4 mb 0.00 in0.0 mm 0.00 in0.0 mm 0.00 in0.0 mm
04:52 PM 37.6°F3.1°C 17.7°F-7.9°C 45% 4.0 mph NNE6.4 kmh NNE 17.0 mph27.4 kmh 30.19 in1022.4 mb 0.00 in0.0 mm 0.00 in0.0 mm 0.00 in0.0 mm
04:47 PM 37.8°F3.2°C 18.4°F-7.6°C 46% 13.0 mph NNE20.9 kmh NNE 17.0 mph27.4 kmh 30.19 in1022.4 mb 0.00 in0.0 mm 0.00 in0.0 mm 0.00 in0.0 mm
04:42 PM 37.7°F3.2°C 18.8°F-7.3°C 47% 10.0 mph NE16.1 kmh NE 17.0 mph27.4 kmh 30.19 in1022.4 mb 0.00 in0.0 mm 0.00 in0.0 mm 0.00 in0.0 mm
04:37 PM 37.5°F3.1°C 18.1°F-7.7°C 46% 6.0 mph NNE9.7 kmh NNE 18.0 mph29.0 kmh 30.19 in1022.4 mb 0.00 in0.0 mm 0.00 in0.0 mm 0.00 in0.0 mm
04:32 PM 37.8°F3.2°C 18.4°F-7.6°C 46% 5.0 mph ENE8.0 kmh ENE 18.0 mph29.0 kmh 30.19 in1022.4 mb 0.00 in0.0 mm 0.00 in0.0 mm 0.00 in0.0 mm
04:27 PM 37.6°F3.1°C 19.8°F-6.8°C 49% 5.0 mph NE8.0 kmh NE 19.0 mph30.6 kmh 30.19 in1022.4 mb 0.00 in0.0 mm 0.00 in0.0 mm 0.00 in0.0 mm
04:22 PM 37.3°F2.9°C 18.5°F-7.5°C 47% 7.0 mph ENE11.3 kmh ENE 19.0 mph30.6 kmh 30.19 in1022.4 mb 0.00 in0.0 mm 0.00 in0.0 mm 0.00 in0.0 mm
04:17 PM 37.3°F2.9°C 18.0°F-7.8°C 46% 7.0 mph NNE11.3 kmh NNE 19.0 mph30.6 kmh 30.19 in1022.4 mb 0.00 in0.0 mm 0.00 in0.0 mm 0.00 in0.0 mm
04:12 PM 38.0°F3.3°C 20.1°F-6.6°C 49% 7.0 mph NNE11.3 kmh NNE 19.0 mph30.6 kmh 30.19 in1022.4 mb 0.00 in0.0 mm 0.00 in0.0 mm 0.00 in0.0 mm
04:07 PM 38.2°F3.4°C 20.3°F-6.5°C 49% 6.0 mph NNE9.7 kmh NNE 19.0 mph30.6 kmh 30.19 in1022.4 mb 0.00 in0.0 mm 0.00 in0.0 mm 0.00 in0.0 mm
04:02 PM 38.0°F3.3°C 19.1°F-7.2°C 47% 11.0 mph NE17.7 kmh NE 19.0 mph30.6 kmh 30.19 in1022.4 mb 0.00 in0.0 mm 0.00 in0.0 mm 0.00 in0.0 mm
03:57 PM 38.0°F3.3°C 19.6°F-6.9°C 48% 12.0 mph NE19.3 kmh NE 20.0 mph32.2 kmh 30.19 in1022.4 mb 0.00 in0.0 mm 0.00 in0.0 mm 0.00 in0.0 mm
03:52 PM 38.3°F3.5°C 19.4°F-7.0°C 47% 7.0 mph N11.3 kmh N 20.0 mph32.2 kmh 30.20 in1022.7 mb 0.00 in0.0 mm 0.00 in0.0 mm 0.00 in0.0 mm
03:47 PM 38.8°F3.8°C 20.4°F-6.4°C 48% 7.0 mph ENE11.3 kmh ENE 20.0 mph32.2 kmh 30.20 in1022.7 mb 0.00 in0.0 mm 0.00 in0.0 mm 0.00 in0.0 mm
03:42 PM 38.9°F3.8°C 20.5°F-6.4°C 48% 11.0 mph NNE17.7 kmh NNE 20.0 mph32.2 kmh 30.20 in1022.7 mb 0.00 in0.0 mm 0.00 in0.0 mm 0.00 in0.0 mm
03:37 PM 38.7°F3.7°C 20.3°F-6.5°C 48% 20.0 mph NE32.2 kmh NE 20.0 mph32.2 kmh 30.20 in1022.7 mb 0.00 in0.0 mm 0.00 in0.0 mm 0.00 in0.0 mm
03:32 PM 40.0°F4.4°C 22.5°F-5.3°C 50% 16.0 mph NE25.7 kmh NE 21.0 mph33.8 kmh 30.20 in1022.7 mb 0.00 in0.0 mm 0.00 in0.0 mm 0.00 in0.0 mm
03:27 PM 39.6°F4.2°C 21.6°F-5.8°C 49% 16.0 mph E25.7 kmh E 21.0 mph33.8 kmh 30.20 in1022.7 mb 0.00 in0.0 mm 0.00 in0.0 mm 0.00 in0.0 mm
03:22 PM 39.5°F4.2°C 24.8°F-4.0°C 56% 8.0 mph ENE12.9 kmh ENE 21.0 mph33.8 kmh 30.20 in1022.7 mb 0.00 in0.0 mm 0.00 in0.0 mm 0.00 in0.0 mm
03:17 PM 38.9°F3.8°C 23.3°F-4.8°C 54% 9.0 mph NE14.5 kmh NE 21.0 mph33.8 kmh 30.20 in1022.7 mb 0.00 in0.0 mm 0.00 in0.0 mm 0.00 in0.0 mm
03:12 PM 39.0°F3.9°C 24.3°F-4.3°C 56% 7.0 mph NE11.3 kmh NE 20.0 mph32.2 kmh 30.20 in1022.7 mb 0.00 in0.0 mm 0.00 in0.0 mm 0.00 in0.0 mm
03:07 PM 39.2°F4.0°C 24.5°F-4.2°C 56% 14.0 mph NE22.5 kmh NE 20.0 mph32.2 kmh 30.20 in1022.7 mb 0.00 in0.0 mm 0.00 in0.0 mm 0.00 in0.0 mm
03:02 PM 39.0°F3.9°C 23.9°F-4.5°C 55% 18.0 mph ENE29.0 kmh ENE 20.0 mph32.2 kmh 30.20 in1022.7 mb 0.00 in0.0 mm 0.00 in0.0 mm 0.00 in0.0 mm
02:57 PM 39.2°F4.0°C 24.1°F-4.4°C 55% 14.0 mph NNE22.5 kmh NNE 21.0 mph33.8 kmh 30.20 in1022.7 mb 0.00 in0.0 mm 0.00 in0.0 mm 0.00 in0.0 mm
02:52 PM 39.2°F4.0°C 24.1°F-4.4°C 55% 11.0 mph NE17.7 kmh NE 21.0 mph33.8 kmh 30.20 in1022.7 mb 0.00 in0.0 mm 0.00 in0.0 mm 0.00 in0.0 mm
02:47 PM 39.1°F3.9°C 24.9°F-3.9°C 57% 12.0 mph NE19.3 kmh NE 23.0 mph37.0 kmh 30.20 in1022.7 mb 0.00 in0.0 mm 0.00 in0.0 mm 0.00 in0.0 mm
02:42 PM 37.9°F3.3°C 23.8°F-4.6°C 57% 7.0 mph NNE11.3 kmh NNE 23.0 mph37.0 kmh 30.20 in1022.7 mb 0.00 in0.0 mm 0.00 in0.0 mm 0.00 in0.0 mm
02:37 PM 38.2°F3.4°C 24.0°F-4.4°C 57% 11.0 mph NE17.7 kmh NE 23.0 mph37.0 kmh 30.20 in1022.7 mb 0.00 in0.0 mm 0.00 in0.0 mm 0.00 in0.0 mm
02:32 PM 38.9°F3.8°C 25.1°F-3.8°C 58% 10.0 mph N16.1 kmh N 23.0 mph37.0 kmh 30.20 in1022.7 mb 0.00 in0.0 mm 0.00 in0.0 mm 0.00 in0.0 mm
02:27 PM 38.5°F3.6°C 24.7°F-4.1°C 58% 6.0 mph NNE9.7 kmh NNE 22.0 mph35.4 kmh 30.20 in1022.7 mb 0.00 in0.0 mm 0.00 in0.0 mm 0.00 in0.0 mm
02:22 PM 38.2°F3.4°C 24.0°F-4.4°C 57% 22.0 mph NE35.4 kmh NE 22.0 mph35.4 kmh 30.20 in1022.7 mb 0.00 in0.0 mm 0.00 in0.0 mm 0.00 in0.0 mm
02:17 PM 39.4°F4.1°C 26.0°F-3.3°C 59% 7.0 mph NNE11.3 kmh NNE 21.0 mph33.8 kmh 30.20 in1022.7 mb 0.00 in0.0 mm 0.00 in0.0 mm 0.00 in0.0 mm
02:12 PM 38.5°F3.6°C 23.9°F-4.5°C 56% 14.0 mph NE22.5 kmh NE 23.0 mph37.0 kmh 30.20 in1022.7 mb 0.00 in0.0 mm 0.00 in0.0 mm 0.00 in0.0 mm
02:07 PM 39.1°F3.9°C 24.9°F-3.9°C 57% 11.0 mph NE17.7 kmh NE 23.0 mph37.0 kmh 30.20 in1022.7 mb 0.00 in0.0 mm 0.00 in0.0 mm 0.00 in0.0 mm
02:02 PM 39.0°F3.9°C 24.8°F-4.0°C 57% 15.0 mph NE24.1 kmh NE 23.0 mph37.0 kmh 30.20 in1022.7 mb 0.00 in0.0 mm 0.00 in0.0 mm 0.00 in0.0 mm
01:57 PM 38.8°F3.8°C 24.2°F-4.3°C 56% 8.0 mph NNE12.9 kmh NNE 23.0 mph37.0 kmh 30.20 in1022.7 mb 0.00 in0.0 mm 0.00 in0.0 mm 0.00 in0.0 mm
01:52 PM 39.1°F3.9°C 24.4°F-4.2°C 56% 14.0 mph NE22.5 kmh NE 21.0 mph33.8 kmh 30.20 in1022.7 mb 0.00 in0.0 mm 0.00 in0.0 mm 0.00 in0.0 mm
01:47 PM 39.2°F4.0°C 24.1°F-4.4°C 55% 10.0 mph NE16.1 kmh NE 23.0 mph37.0 kmh 30.20 in1022.7 mb 0.00 in0.0 mm 0.00 in0.0 mm 0.00 in0.0 mm
01:42 PM 40.2°F4.6°C 26.3°F-3.2°C 58% 6.0 mph NE9.7 kmh NE 23.0 mph37.0 kmh 30.20 in1022.7 mb 0.00 in0.0 mm 0.00 in0.0 mm 0.00 in0.0 mm
01:37 PM 39.1°F3.9°C 24.9°F-3.9°C 57% 8.0 mph ENE12.9 kmh ENE 26.0 mph41.8 kmh 30.20 in1022.7 mb 0.00 in0.0 mm 0.00 in0.0 mm 0.00 in0.0 mm
01:32 PM 38.2°F3.4°C 23.6°F-4.7°C 56% 10.0 mph NE16.1 kmh NE 26.0 mph41.8 kmh 30.20 in1022.7 mb 0.00 in0.0 mm 0.00 in0.0 mm 0.00 in0.0 mm
01:27 PM 39.1°F3.9°C 24.4°F-4.2°C 56% 14.0 mph NNE22.5 kmh NNE 26.0 mph41.8 kmh 30.20 in1022.7 mb 0.00 in0.0 mm 0.00 in0.0 mm 0.00 in0.0 mm
01:22 PM 39.3°F4.1°C 24.6°F-4.1°C 56% 14.0 mph NE22.5 kmh NE 26.0 mph41.8 kmh 30.20 in1022.7 mb 0.00 in0.0 mm 0.00 in0.0 mm 0.00 in0.0 mm
01:17 PM 39.0°F3.9°C 24.8°F-4.0°C 57% 15.0 mph NE24.1 kmh NE 26.0 mph41.8 kmh 30.20 in1022.7 mb 0.00 in0.0 mm 0.00 in0.0 mm 0.00 in0.0 mm
01:12 PM 38.7°F3.7°C 24.5°F-4.2°C 57% 12.0 mph NE19.3 kmh NE 26.0 mph41.8 kmh 30.19 in1022.4 mb 0.00 in0.0 mm 0.00 in0.0 mm 0.00 in0.0 mm
01:07 PM 38.1°F3.4°C 23.5°F-4.7°C 56% 16.0 mph NE25.7 kmh NE 24.0 mph38.6 kmh 30.20 in1022.7 mb 0.00 in0.0 mm 0.00 in0.0 mm 0.00 in0.0 mm
01:02 PM 39.7°F4.3°C 24.5°F-4.2°C 55% 7.0 mph NNE11.3 kmh NNE 24.0 mph38.6 kmh 30.20 in1022.7 mb 0.00 in0.0 mm 0.00 in0.0 mm 0.00 in0.0 mm
12:57 PM 39.7°F4.3°C 25.0°F-3.9°C 56% 9.0 mph NNE14.5 kmh NNE 24.0 mph38.6 kmh 30.19 in1022.4 mb 0.00 in0.0 mm 0.00 in0.0 mm 0.00 in0.0 mm
12:52 PM 39.4°F4.1°C 24.7°F-4.1°C 56% 11.0 mph ENE17.7 kmh ENE 24.0 mph38.6 kmh 30.20 in1022.7 mb 0.00 in0.0 mm 0.00 in0.0 mm 0.00 in0.0 mm
12:47 PM 39.5°F4.2°C 25.2°F-3.8°C 57% 14.0 mph NE22.5 kmh NE 23.0 mph37.0 kmh 30.20 in1022.7 mb 0.00 in0.0 mm 0.00 in0.0 mm 0.00 in0.0 mm
12:42 PM 39.2°F4.0°C 25.0°F-3.9°C 57% 8.0 mph NE12.9 kmh NE 23.0 mph37.0 kmh 30.19 in1022.4 mb 0.00 in0.0 mm 0.00 in0.0 mm 0.00 in0.0 mm
12:37 PM 38.3°F3.5°C 24.1°F-4.4°C 57% 8.0 mph NE12.9 kmh NE 24.0 mph38.6 kmh 30.19 in1022.4 mb 0.00 in0.0 mm 0.00 in0.0 mm 0.00 in0.0 mm
12:32 PM 38.7°F3.7°C 24.1°F-4.4°C 56% 7.0 mph NE11.3 kmh NE 24.0 mph38.6 kmh 30.19 in1022.4 mb 0.00 in0.0 mm 0.00 in0.0 mm 0.00 in0.0 mm
12:27 PM 38.9°F3.8°C 25.5°F-3.6°C 59% 8.0 mph NE12.9 kmh NE 26.0 mph41.8 kmh 30.19 in1022.4 mb 0.00 in0.0 mm 0.00 in0.0 mm 0.00 in0.0 mm
12:22 PM 38.8°F3.8°C 24.6°F-4.1°C 57% 14.0 mph ENE22.5 kmh ENE 26.0 mph41.8 kmh 30.19 in1022.4 mb 0.00 in0.0 mm 0.00 in0.0 mm 0.00 in0.0 mm
12:17 PM 38.5°F3.6°C 25.2°F-3.8°C 59% 14.0 mph ENE22.5 kmh ENE 26.0 mph41.8 kmh 30.19 in1022.4 mb 0.00 in0.0 mm 0.00 in0.0 mm 0.00 in0.0 mm
12:12 PM 37.5°F3.1°C 23.8°F-4.6°C 58% 20.0 mph NE32.2 kmh NE 26.0 mph41.8 kmh 30.19 in1022.4 mb 0.00 in0.0 mm 0.00 in0.0 mm 0.00 in0.0 mm
12:07 PM 37.9°F3.3°C 24.6°F-4.1°C 59% 11.0 mph NE17.7 kmh NE 24.0 mph38.6 kmh 30.19 in1022.4 mb 0.00 in0.0 mm 0.00 in0.0 mm 0.00 in0.0 mm
12:02 PM 38.4°F3.6°C 26.7°F-2.9°C 63% 16.0 mph NE25.7 kmh NE 21.0 mph33.8 kmh 30.19 in1022.4 mb 0.00 in0.0 mm 0.00 in0.0 mm 0.00 in0.0 mm
11:57 AM 36.9°F2.7°C 25.3°F-3.7°C 63% 11.0 mph ENE17.7 kmh ENE 24.0 mph38.6 kmh 30.19 in1022.4 mb 0.00 in0.0 mm 0.00 in0.0 mm 0.00 in0.0 mm
11:52 AM 36.9°F2.7°C 25.7°F-3.5°C 64% 10.0 mph E16.1 kmh E 24.0 mph38.6 kmh 30.19 in1022.4 mb 0.00 in0.0 mm 0.00 in0.0 mm 0.00 in0.0 mm
11:47 AM 36.2°F2.3°C 25.4°F-3.7°C 65% 3.0 mph ENE4.8 kmh ENE 26.0 mph41.8 kmh 30.19 in1022.4 mb 0.00 in0.0 mm 0.00 in0.0 mm 0.00 in0.0 mm
11:42 AM 35.8°F2.1°C 25.0°F-3.9°C 65% 16.0 mph E25.7 kmh E 26.0 mph41.8 kmh 30.18 in1022.0 mb 0.00 in0.0 mm 0.00 in0.0 mm 0.00 in0.0 mm
11:37 AM 36.1°F2.3°C 25.7°F-3.5°C 66% 13.0 mph ENE20.9 kmh ENE 26.0 mph41.8 kmh 30.18 in1022.0 mb 0.00 in0.0 mm 0.00 in0.0 mm 0.00 in0.0 mm
11:32 AM 36.8°F2.7°C 26.0°F-3.3°C 65% 11.0 mph NE17.7 kmh NE 26.0 mph41.8 kmh 30.18 in1022.0 mb 0.00 in0.0 mm 0.00 in0.0 mm 0.00 in0.0 mm
11:27 AM 36.9°F2.7°C 26.1°F-3.3°C 65% 8.0 mph NNE12.9 kmh NNE 23.0 mph37.0 kmh 30.18 in1022.0 mb 0.00 in0.0 mm 0.00 in0.0 mm 0.00 in0.0 mm
11:22 AM 37.0°F2.8°C 26.2°F-3.2°C 65% 19.0 mph ENE30.6 kmh ENE 26.0 mph41.8 kmh 30.18 in1022.0 mb 0.00 in0.0 mm 0.00 in0.0 mm 0.00 in0.0 mm
11:17 AM 35.9°F2.2°C 25.9°F-3.4°C 67% 12.0 mph ENE19.3 kmh ENE 26.0 mph41.8 kmh 30.18 in1022.0 mb 0.00 in0.0 mm 0.00 in0.0 mm 0.00 in0.0 mm
11:12 AM 35.3°F1.8°C 24.5°F-4.2°C 65% 19.0 mph ENE30.6 kmh ENE 28.0 mph45.1 kmh 30.18 in1022.0 mb 0.00 in0.0 mm 0.00 in0.0 mm 0.00 in0.0 mm
11:07 AM 35.0°F1.7°C 24.3°F-4.3°C 65% 14.0 mph NE22.5 kmh NE 28.0 mph45.1 kmh 30.18 in1022.0 mb 0.00 in0.0 mm 0.00 in0.0 mm 0.00 in0.0 mm
11:02 AM 35.2°F1.8°C 24.5°F-4.2°C 65% 24.0 mph NE38.6 kmh NE 28.0 mph45.1 kmh 30.18 in1022.0 mb 0.00 in0.0 mm 0.00 in0.0 mm 0.00 in0.0 mm
10:57 AM 35.3°F1.8°C 24.9°F-3.9°C 66% 14.0 mph ENE22.5 kmh ENE 28.0 mph45.1 kmh 30.18 in1022.0 mb 0.00 in0.0 mm 0.00 in0.0 mm 0.00 in0.0 mm
10:52 AM 35.1°F1.7°C 24.7°F-4.1°C 66% 11.0 mph ENE17.7 kmh ENE 28.0 mph45.1 kmh 30.18 in1022.0 mb 0.00 in0.0 mm 0.00 in0.0 mm 0.00 in0.0 mm
10:47 AM 35.1°F1.7°C 25.1°F-3.8°C 67% 15.0 mph ENE24.1 kmh ENE 28.0 mph45.1 kmh 30.18 in1022.0 mb 0.00 in0.0 mm 0.00 in0.0 mm 0.00 in0.0 mm
10:42 AM 34.9°F1.6°C 24.9°F-3.9°C 67% 19.0 mph NE30.6 kmh NE 28.0 mph45.1 kmh 30.18 in1022.0 mb 0.00 in0.0 mm 0.00 in0.0 mm 0.00 in0.0 mm
10:37 AM 34.9°F1.6°C 24.9°F-3.9°C 67% 15.0 mph NE24.1 kmh NE 28.0 mph45.1 kmh 30.18 in1022.0 mb 0.00 in0.0 mm 0.00 in0.0 mm 0.00 in0.0 mm
10:32 AM 35.0°F1.7°C 25.7°F-3.5°C 69% 19.0 mph NE30.6 kmh NE 25.0 mph40.2 kmh 30.18 in1022.0 mb 0.00 in0.0 mm 0.00 in0.0 mm 0.00 in0.0 mm
10:27 AM 34.9°F1.6°C 25.6°F-3.6°C 69% 11.0 mph NE17.7 kmh NE 25.0 mph40.2 kmh 30.18 in1022.0 mb 0.00 in0.0 mm 0.00 in0.0 mm 0.00 in0.0 mm
10:22 AM 34.9°F1.6°C 26.0°F-3.3°C 70% 18.0 mph ENE29.0 kmh ENE 25.0 mph40.2 kmh 30.18 in1022.0 mb 0.00 in0.0 mm 0.00 in0.0 mm 0.00 in0.0 mm
10:17 AM 34.8°F1.6°C 26.3°F-3.2°C 71% 11.0 mph ENE17.7 kmh ENE 25.0 mph40.2 kmh 30.18 in1022.0 mb 0.00 in0.0 mm 0.00 in0.0 mm 0.00 in0.0 mm
10:12 AM 34.6°F1.4°C 26.1°F-3.3°C 71% 19.0 mph ENE30.6 kmh ENE 29.0 mph46.7 kmh 30.17 in1021.7 mb 0.00 in0.0 mm 0.00 in0.0 mm 0.00 in0.0 mm
10:07 AM 34.5°F1.4°C 26.3°F-3.2°C 72% 11.0 mph NE17.7 kmh NE 29.0 mph46.7 kmh 30.17 in1021.7 mb 0.00 in0.0 mm 0.00 in0.0 mm 0.00 in0.0 mm
10:02 AM 34.4°F1.3°C 26.6°F-3.0°C 73% 17.0 mph NE27.4 kmh NE 29.0 mph46.7 kmh 30.17 in1021.7 mb 0.00 in0.0 mm 0.00 in0.0 mm 0.00 in0.0 mm
09:57 AM 34.3°F1.3°C 26.5°F-3.1°C 73% 13.0 mph NE20.9 kmh NE 29.0 mph46.7 kmh 30.17 in1021.7 mb 0.00 in0.0 mm 0.00 in0.0 mm 0.00 in0.0 mm
09:52 AM 34.2°F1.2°C 26.7°F-2.9°C 74% 9.0 mph NE14.5 kmh NE 24.0 mph38.6 kmh 30.17 in1021.7 mb 0.00 in0.0 mm 0.00 in0.0 mm 0.00 in0.0 mm
09:47 AM 34.3°F1.3°C 27.1°F-2.7°C 75% 9.0 mph NE14.5 kmh NE 24.0 mph38.6 kmh 30.17 in1021.7 mb 0.00 in0.0 mm 0.00 in0.0 mm 0.00 in0.0 mm
09:42 AM 34.0°F1.1°C 26.9°F-2.8°C 75% 7.0 mph NNE11.3 kmh NNE 24.0 mph38.6 kmh 30.17 in1021.7 mb 0.00 in0.0 mm 0.00 in0.0 mm 0.00 in0.0 mm
09:37 AM 33.9°F1.1°C 26.8°F-2.9°C 75% 21.0 mph NE33.8 kmh NE 24.0 mph38.6 kmh 30.17 in1021.7 mb 0.00 in0.0 mm 0.00 in0.0 mm 0.00 in0.0 mm
09:32 AM 33.8°F1.0°C 27.0°F-2.8°C 76% 12.0 mph NE19.3 kmh NE 24.0 mph38.6 kmh 30.17 in1021.7 mb 0.00 in0.0 mm 0.00 in0.0 mm 0.00 in0.0 mm
09:27 AM 33.8°F1.0°C 27.3°F-2.6°C 77% 19.0 mph NE30.6 kmh NE 24.0 mph38.6 kmh 30.17 in1021.7 mb 0.00 in0.0 mm 0.00 in0.0 mm 0.00 in0.0 mm
09:22 AM 33.6°F0.9°C 27.4°F-2.6°C 78% 13.0 mph NE20.9 kmh NE 26.0 mph41.8 kmh 30.16 in1021.3 mb 0.00 in0.0 mm 0.00 in0.0 mm 0.00 in0.0 mm
09:17 AM 33.3°F0.7°C 27.1°F-2.7°C 78% 12.0 mph NE19.3 kmh NE 26.0 mph41.8 kmh 30.16 in1021.3 mb 0.00 in0.0 mm 0.00 in0.0 mm 0.00 in0.0 mm
09:12 AM 33.2°F0.7°C 27.4°F-2.6°C 79% 16.0 mph ENE25.7 kmh ENE 27.0 mph43.5 kmh 30.16 in1021.3 mb 0.00 in0.0 mm 0.00 in0.0 mm 0.00 in0.0 mm
09:07 AM 33.0°F0.6°C 27.2°F-2.7°C 79% 7.0 mph NE11.3 kmh NE 27.0 mph43.5 kmh 30.16 in1021.3 mb 0.00 in0.0 mm 0.00 in0.0 mm 0.00 in0.0 mm
09:02 AM 33.0°F0.6°C 27.2°F-2.7°C 79% 12.0 mph ENE19.3 kmh ENE 27.0 mph43.5 kmh 30.16 in1021.3 mb 0.00 in0.0 mm 0.00 in0.0 mm 0.00 in0.0 mm
08:57 AM 33.0°F0.6°C 27.2°F-2.7°C 79% 9.0 mph ENE14.5 kmh ENE 27.0 mph43.5 kmh 30.16 in1021.3 mb 0.00 in0.0 mm 0.00 in0.0 mm 0.00 in0.0 mm
08:52 AM 33.0°F0.6°C 27.5°F-2.5°C 80% 7.0 mph NE11.3 kmh NE 23.0 mph37.0 kmh 30.16 in1021.3 mb 0.00 in0.0 mm 0.00 in0.0 mm 0.00 in0.0 mm
08:47 AM 33.1°F0.6°C 27.9°F-2.3°C 81% 12.0 mph ENE19.3 kmh ENE 22.0 mph35.4 kmh 30.15 in1021.0 mb 0.00 in0.0 mm 0.00 in0.0 mm 0.00 in0.0 mm
08:42 AM 33.1°F0.6°C 27.9°F-2.3°C 81% 11.0 mph NE17.7 kmh NE 26.0 mph41.8 kmh 30.15 in1021.0 mb 0.00 in0.0 mm 0.00 in0.0 mm 0.00 in0.0 mm
08:37 AM 33.2°F0.7°C 28.0°F-2.2°C 81% 12.0 mph ENE19.3 kmh ENE 26.0 mph41.8 kmh 30.15 in1021.0 mb 0.00 in0.0 mm 0.00 in0.0 mm 0.00 in0.0 mm
08:32 AM 33.2°F0.7°C 28.0°F-2.2°C 81% 13.0 mph NE20.9 kmh NE 26.0 mph41.8 kmh 30.15 in1021.0 mb 0.00 in0.0 mm 0.00 in0.0 mm 0.00 in0.0 mm
08:27 AM 33.2°F0.7°C 28.0°F-2.2°C 81% 8.0 mph NE12.9 kmh NE 26.0 mph41.8 kmh 30.15 in1021.0 mb 0.00 in0.0 mm 0.00 in0.0 mm 0.00 in0.0 mm
08:22 AM 33.3°F0.7°C 28.1°F-2.2°C 81% 11.0 mph NE17.7 kmh NE 22.0 mph35.4 kmh 30.15 in1021.0 mb 0.00 in0.0 mm 0.00 in0.0 mm 0.00 in0.0 mm
08:17 AM 33.3°F0.7°C 28.1°F-2.2°C 81% 7.0 mph NE11.3 kmh NE 24.0 mph38.6 kmh 30.15 in1021.0 mb 0.00 in0.0 mm 0.00 in0.0 mm 0.00 in0.0 mm
08:12 AM 33.4°F0.8°C 28.2°F-2.1°C 81% 7.0 mph NE11.3 kmh NE 24.0 mph38.6 kmh 30.15 in1021.0 mb 0.00 in0.0 mm 0.00 in0.0 mm 0.00 in0.0 mm
08:07 AM 33.4°F0.8°C 28.2°F-2.1°C 81% 10.0 mph NNE16.1 kmh NNE 24.0 mph38.6 kmh 30.14 in1020.7 mb 0.00 in0.0 mm 0.00 in0.0 mm 0.00 in0.0 mm
08:02 AM 33.5°F0.8°C 28.3°F-2.1°C 81% 13.0 mph NE20.9 kmh NE 24.0 mph38.6 kmh 30.14 in1020.7 mb 0.00 in0.0 mm 0.00 in0.0 mm 0.00 in0.0 mm
07:57 AM 33.6°F0.9°C 28.4°F-2.0°C 81% 11.0 mph NNE17.7 kmh NNE 24.0 mph38.6 kmh 30.14 in1020.7 mb 0.00 in0.0 mm 0.00 in0.0 mm 0.00 in0.0 mm
07:52 AM 33.6°F0.9°C 28.4°F-2.0°C 81% 11.0 mph NNE17.7 kmh NNE 24.0 mph38.6 kmh 30.14 in1020.7 mb 0.00 in0.0 mm 0.00 in0.0 mm 0.00 in0.0 mm
07:47 AM 33.7°F0.9°C 28.5°F-1.9°C 81% 12.0 mph NE19.3 kmh NE 25.0 mph40.2 kmh 30.13 in1020.3 mb 0.00 in0.0 mm 0.00 in0.0 mm 0.00 in0.0 mm
07:42 AM 33.8°F1.0°C 28.6°F-1.9°C 81% 11.0 mph NE17.7 kmh NE 25.0 mph40.2 kmh 30.13 in1020.3 mb 0.00 in0.0 mm 0.00 in0.0 mm 0.00 in0.0 mm
07:37 AM 33.8°F1.0°C 28.6°F-1.9°C 81% 10.0 mph ENE16.1 kmh ENE 25.0 mph40.2 kmh 30.13 in1020.3 mb 0.00 in0.0 mm 0.00 in0.0 mm 0.00 in0.0 mm
07:32 AM 33.9°F1.1°C 28.7°F-1.8°C 81% 11.0 mph NE17.7 kmh NE 25.0 mph40.2 kmh 30.12 in1020.0 mb 0.00 in0.0 mm 0.00 in0.0 mm 0.00 in0.0 mm
07:27 AM 33.9°F1.1°C 28.7°F-1.8°C 81% 11.0 mph NE17.7 kmh NE 25.0 mph40.2 kmh 30.12 in1020.0 mb 0.00 in0.0 mm 0.00 in0.0 mm 0.00 in0.0 mm
07:22 AM 34.0°F1.1°C 28.8°F-1.8°C 81% 11.0 mph NE17.7 kmh NE 25.0 mph40.2 kmh 30.12 in1020.0 mb 0.00 in0.0 mm 0.00 in0.0 mm 0.00 in0.0 mm
07:17 AM 34.1°F1.2°C 28.9°F-1.7°C 81% 11.0 mph NE17.7 kmh NE 23.0 mph37.0 kmh 30.12 in1020.0 mb 0.00 in0.0 mm 0.00 in0.0 mm 0.00 in0.0 mm
07:12 AM 34.1°F1.2°C 28.9°F-1.7°C 81% 8.0 mph ENE12.9 kmh ENE 23.0 mph37.0 kmh 30.11 in1019.6 mb 0.00 in0.0 mm 0.00 in0.0 mm 0.00 in0.0 mm
07:07 AM 34.1°F1.2°C 28.9°F-1.7°C 81% 7.0 mph NE11.3 kmh NE 23.0 mph37.0 kmh 30.11 in1019.6 mb 0.00 in0.0 mm 0.00 in0.0 mm 0.00 in0.0 mm
07:02 AM 34.2°F1.2°C 29.0°F-1.7°C 81% 16.0 mph NE25.7 kmh NE 23.0 mph37.0 kmh 30.11 in1019.6 mb 0.00 in0.0 mm 0.00 in0.0 mm 0.00 in0.0 mm
06:57 AM 34.2°F1.2°C 29.0°F-1.7°C 81% 10.0 mph NE16.1 kmh NE 21.0 mph33.8 kmh 30.11 in1019.6 mb 0.00 in0.0 mm 0.00 in0.0 mm 0.00 in0.0 mm
06:52 AM 34.2°F1.2°C 29.3°F-1.5°C 82% 5.0 mph NE8.0 kmh NE 21.0 mph33.8 kmh 30.10 in1019.3 mb 0.00 in0.0 mm 0.00 in0.0 mm 0.00 in0.0 mm
06:47 AM 34.3°F1.3°C 29.4°F-1.4°C 82% 14.0 mph NE22.5 kmh NE 20.0 mph32.2 kmh 30.10 in1019.3 mb 0.00 in0.0 mm 0.00 in0.0 mm 0.00 in0.0 mm
06:42 AM 34.3°F1.3°C 29.4°F-1.4°C 82% 12.0 mph ENE19.3 kmh ENE 19.0 mph30.6 kmh 30.10 in1019.3 mb 0.00 in0.0 mm 0.00 in0.0 mm 0.00 in0.0 mm
06:37 AM 34.4°F1.3°C 29.5°F-1.4°C 82% 6.0 mph N9.7 kmh N 19.0 mph30.6 kmh 30.10 in1019.3 mb 0.00 in0.0 mm 0.00 in0.0 mm 0.00 in0.0 mm
06:32 AM 34.4°F1.3°C 29.5°F-1.4°C 82% 4.0 mph NE6.4 kmh NE 19.0 mph30.6 kmh 30.10 in1019.3 mb 0.00 in0.0 mm 0.00 in0.0 mm 0.00 in0.0 mm
06:27 AM 34.4°F1.3°C 29.5°F-1.4°C 82% 16.0 mph NE25.7 kmh NE 19.0 mph30.6 kmh 30.09 in1019.0 mb 0.00 in0.0 mm 0.00 in0.0 mm 0.00 in0.0 mm
06:22 AM 34.4°F1.3°C 29.5°F-1.4°C 82% 6.0 mph NE9.7 kmh NE 19.0 mph30.6 kmh 30.10 in1019.3 mb 0.00 in0.0 mm 0.00 in0.0 mm 0.00 in0.0 mm
06:17 AM 34.4°F1.3°C 29.5°F-1.4°C 82% 8.0 mph NE12.9 kmh NE 19.0 mph30.6 kmh 30.10 in1019.3 mb 0.00 in0.0 mm 0.00 in0.0 mm 0.00 in0.0 mm
06:12 AM 34.4°F1.3°C 29.5°F-1.4°C 82% 8.0 mph E12.9 kmh E 19.0 mph30.6 kmh 30.10 in1019.3 mb 0.00 in0.0 mm 0.00 in0.0 mm 0.00 in0.0 mm
06:07 AM 34.4°F1.3°C 29.5°F-1.4°C 82% 13.0 mph NNE20.9 kmh NNE 16.0 mph25.7 kmh 30.09 in1019.0 mb 0.00 in0.0 mm 0.00 in0.0 mm 0.00 in0.0 mm
06:02 AM 34.5°F1.4°C 29.3°F-1.5°C 81% 12.0 mph NE19.3 kmh NE 16.0 mph25.7 kmh 30.09 in1019.0 mb 0.00 in0.0 mm 0.00 in0.0 mm 0.00 in0.0 mm
05:57 AM 34.6°F1.4°C 29.4°F-1.4°C 81% 3.0 mph NNE4.8 kmh NNE 16.0 mph25.7 kmh 30.09 in1019.0 mb 0.00 in0.0 mm 0.00 in0.0 mm 0.00 in0.0 mm
05:52 AM 34.6°F1.4°C 29.4°F-1.4°C 81% 9.0 mph NE14.5 kmh NE 16.0 mph25.7 kmh 30.10 in1019.3 mb 0.00 in0.0 mm 0.00 in0.0 mm 0.00 in0.0 mm
05:47 AM 34.7°F1.5°C 29.4°F-1.4°C 81% 9.0 mph ENE14.5 kmh ENE 16.0 mph25.7 kmh 30.10 in1019.3 mb 0.00 in0.0 mm 0.00 in0.0 mm 0.00 in0.0 mm
05:42 AM 34.8°F1.6°C 29.5°F-1.4°C 81% 5.0 mph ENE8.0 kmh ENE 15.0 mph24.1 kmh 30.10 in1019.3 mb 0.00 in0.0 mm 0.00 in0.0 mm 0.00 in0.0 mm
05:37 AM 34.9°F1.6°C 29.6°F-1.3°C 81% 5.0 mph NE8.0 kmh NE 15.0 mph24.1 kmh 30.10 in1019.3 mb 0.00 in0.0 mm 0.00 in0.0 mm 0.00 in0.0 mm
05:32 AM 35.0°F1.7°C 29.4°F-1.4°C 80% 7.0 mph NE11.3 kmh NE 13.0 mph20.9 kmh 30.10 in1019.3 mb 0.00 in0.0 mm 0.00 in0.0 mm 0.00 in0.0 mm
05:27 AM 35.1°F1.7°C 29.5°F-1.4°C 80% 10.0 mph ENE16.1 kmh ENE 13.0 mph20.9 kmh 30.10 in1019.3 mb 0.00 in0.0 mm 0.00 in0.0 mm 0.00 in0.0 mm
05:22 AM 35.3°F1.8°C 29.7°F-1.3°C 80% 5.0 mph NE8.0 kmh NE 16.0 mph25.7 kmh 30.10 in1019.3 mb 0.00 in0.0 mm 0.00 in0.0 mm 0.00 in0.0 mm
05:17 AM 35.3°F1.8°C 29.7°F-1.3°C 80% 7.0 mph NE11.3 kmh NE 16.0 mph25.7 kmh 30.10 in1019.3 mb 0.00 in0.0 mm 0.00 in0.0 mm 0.00 in0.0 mm
05:12 AM 35.5°F1.9°C 29.9°F-1.2°C 80% 8.0 mph NE12.9 kmh NE 16.0 mph25.7 kmh 30.10 in1019.3 mb 0.00 in0.0 mm 0.00 in0.0 mm 0.00 in0.0 mm
05:07 AM 35.6°F2.0°C 30.0°F-1.1°C 80% 6.0 mph NNE9.7 kmh NNE 16.0 mph25.7 kmh 30.10 in1019.3 mb 0.00 in0.0 mm 0.00 in0.0 mm 0.00 in0.0 mm
05:02 AM 35.7°F2.1°C 30.1°F-1.1°C 80% 6.0 mph NE9.7 kmh NE 11.0 mph17.7 kmh 30.10 in1019.3 mb 0.00 in0.0 mm 0.00 in0.0 mm 0.00 in0.0 mm
04:57 AM 35.8°F2.1°C 30.2°F-1.0°C 80% 8.0 mph NE12.9 kmh NE 11.0 mph17.7 kmh 30.11 in1019.6 mb 0.00 in0.0 mm 0.00 in0.0 mm 0.00 in0.0 mm
04:52 AM 35.9°F2.2°C 30.3°F-0.9°C 80% 6.0 mph NNE9.7 kmh NNE 11.0 mph17.7 kmh 30.11 in1019.6 mb 0.00 in0.0 mm 0.00 in0.0 mm 0.00 in0.0 mm
04:47 AM 35.9°F2.2°C 30.3°F-0.9°C 80% 3.0 mph NNE4.8 kmh NNE 11.0 mph17.7 kmh 30.11 in1019.6 mb 0.00 in0.0 mm 0.00 in0.0 mm 0.00 in0.0 mm
04:42 AM 36.0°F2.2°C 30.4°F-0.9°C 80% 4.0 mph NNE6.4 kmh NNE 13.0 mph20.9 kmh 30.11 in1019.6 mb 0.00 in0.0 mm 0.00 in0.0 mm 0.00 in0.0 mm
04:37 AM 36.0°F2.2°C 30.4°F-0.9°C 80% 6.0 mph NE9.7 kmh NE 13.0 mph20.9 kmh 30.11 in1019.6 mb 0.00 in0.0 mm 0.00 in0.0 mm 0.00 in0.0 mm
04:32 AM 36.1°F2.3°C 30.5°F-0.8°C 80% 6.0 mph NE9.7 kmh NE 15.0 mph24.1 kmh 30.11 in1019.6 mb 0.00 in0.0 mm 0.00 in0.0 mm 0.00 in0.0 mm
04:27 AM 36.2°F2.3°C 30.6°F-0.8°C 80% 11.0 mph NE17.7 kmh NE 15.0 mph24.1 kmh 30.11 in1019.6 mb 0.00 in0.0 mm 0.00 in0.0 mm 0.00 in0.0 mm
04:22 AM 36.3°F2.4°C 30.7°F-0.7°C 80% 3.0 mph NE4.8 kmh NE 15.0 mph24.1 kmh 30.11 in1019.6 mb 0.00 in0.0 mm 0.00 in0.0 mm 0.00 in0.0 mm
04:17 AM 36.3°F2.4°C 30.7°F-0.7°C 80% 12.0 mph ENE19.3 kmh ENE 15.0 mph24.1 kmh 30.11 in1019.6 mb 0.00 in0.0 mm 0.00 in0.0 mm 0.00 in0.0 mm
04:12 AM 36.4°F2.4°C 30.8°F-0.7°C 80% 7.0 mph ENE11.3 kmh ENE 14.0 mph22.5 kmh 30.11 in1019.6 mb 0.00 in0.0 mm 0.00 in0.0 mm 0.00 in0.0 mm
04:07 AM 36.4°F2.4°C 30.8°F-0.7°C 80% 7.0 mph NE11.3 kmh NE 13.0 mph20.9 kmh 30.11 in1019.6 mb 0.00 in0.0 mm 0.00 in0.0 mm 0.00 in0.0 mm
04:02 AM 36.5°F2.5°C 30.9°F-0.6°C 80% 5.0 mph NE8.0 kmh NE 12.0 mph19.3 kmh 30.11 in1019.6 mb 0.00 in0.0 mm 0.00 in0.0 mm 0.00 in0.0 mm
03:57 AM 36.6°F2.6°C 31.0°F-0.6°C 80% 6.0 mph N9.7 kmh N 13.0 mph20.9 kmh 30.11 in1019.6 mb 0.00 in0.0 mm 0.00 in0.0 mm 0.00 in0.0 mm
03:52 AM 36.6°F2.6°C 31.0°F-0.6°C 80% 7.0 mph ENE11.3 kmh ENE 13.0 mph20.9 kmh 30.11 in1019.6 mb 0.00 in0.0 mm 0.00 in0.0 mm 0.00 in0.0 mm
03:47 AM 36.7°F2.6°C 31.1°F-0.5°C 80% 4.0 mph NE6.4 kmh NE 13.0 mph20.9 kmh 30.11 in1019.6 mb 0.00 in0.0 mm 0.00 in0.0 mm 0.00 in0.0 mm
03:42 AM 36.8°F2.7°C 31.2°F-0.4°C 80% 9.0 mph ENE14.5 kmh ENE 13.0 mph20.9 kmh 30.11 in1019.6 mb 0.00 in0.0 mm 0.00 in0.0 mm 0.00 in0.0 mm
03:37 AM 36.9°F2.7°C 31.3°F-0.4°C 80% 4.0 mph NE6.4 kmh NE 12.0 mph19.3 kmh 30.11 in1019.6 mb 0.00 in0.0 mm 0.00 in0.0 mm 0.00 in0.0 mm
03:32 AM 37.0°F2.8°C 31.4°F-0.3°C 80% 10.0 mph NE16.1 kmh NE 14.0 mph22.5 kmh 30.11 in1019.6 mb 0.00 in0.0 mm 0.00 in0.0 mm 0.00 in0.0 mm
03:27 AM 37.1°F2.8°C 31.5°F-0.3°C 80% 12.0 mph NE19.3 kmh NE 14.0 mph22.5 kmh 30.11 in1019.6 mb 0.00 in0.0 mm 0.00 in0.0 mm 0.00 in0.0 mm
03:22 AM 37.2°F2.9°C 31.6°F-0.2°C 80% 5.0 mph NE8.0 kmh NE 14.0 mph22.5 kmh 30.11 in1019.6 mb 0.00 in0.0 mm 0.00 in0.0 mm 0.00 in0.0 mm
03:17 AM 37.4°F3.0°C 31.8°F-0.1°C 80% 7.0 mph N11.3 kmh N 14.0 mph22.5 kmh 30.11 in1019.6 mb 0.00 in0.0 mm 0.00 in0.0 mm 0.00 in0.0 mm
03:12 AM 37.6°F3.1°C 32.0°F0.0°C 80% 11.0 mph NE17.7 kmh NE 11.0 mph17.7 kmh 30.11 in1019.6 mb 0.00 in0.0 mm 0.00 in0.0 mm 0.00 in0.0 mm
03:07 AM 37.7°F3.2°C 32.1°F0.1°C 80% 5.0 mph NE8.0 kmh NE 13.0 mph20.9 kmh 30.11 in1019.6 mb 0.00 in0.0 mm 0.00 in0.0 mm 0.00 in0.0 mm
03:02 AM 37.9°F3.3°C 31.9°F-0.1°C 79% 6.0 mph NNE9.7 kmh NNE 13.0 mph20.9 kmh 30.11 in1019.6 mb 0.00 in0.0 mm 0.00 in0.0 mm 0.00 in0.0 mm
02:57 AM 38.3°F3.5°C 32.3°F0.2°C 79% 3.0 mph NNE4.8 kmh NNE 13.0 mph20.9 kmh 30.11 in1019.6 mb 0.00 in0.0 mm 0.00 in0.0 mm 0.00 in0.0 mm
02:52 AM 38.7°F3.7°C 32.7°F0.4°C 79% 3.0 mph N4.8 kmh N 13.0 mph20.9 kmh 30.11 in1019.6 mb 0.00 in0.0 mm 0.00 in0.0 mm 0.00 in0.0 mm
02:47 AM 39.2°F4.0°C 33.5°F0.8°C 80% 5.0 mph N8.0 kmh N 11.0 mph17.7 kmh 30.12 in1020.0 mb 0.00 in0.0 mm 0.00 in0.0 mm 0.00 in0.0 mm
02:42 AM 39.6°F4.2°C 33.9°F1.1°C 80% 2.0 mph N3.2 kmh N 7.0 mph11.3 kmh 30.12 in1020.0 mb 0.00 in0.0 mm 0.00 in0.0 mm 0.00 in0.0 mm
02:37 AM 39.9°F4.4°C 34.2°F1.2°C 80% 1.0 mph N1.6 kmh N 5.0 mph8.0 kmh 30.11 in1019.6 mb 0.00 in0.0 mm 0.00 in0.0 mm 0.00 in0.0 mm
02:32 AM 40.1°F4.5°C 34.1°F1.2°C 79% 1.0 mph N1.6 kmh N 5.0 mph8.0 kmh 30.12 in1020.0 mb 0.00 in0.0 mm 0.00 in0.0 mm 0.00 in0.0 mm
02:27 AM 40.3°F4.6°C 34.3°F1.3°C 79% 2.0 mph N3.2 kmh N 5.0 mph8.0 kmh 30.12 in1020.0 mb 0.00 in0.0 mm 0.00 in0.0 mm 0.00 in0.0 mm
02:22 AM 40.5°F4.7°C 34.4°F1.3°C 79% 2.0 mph N3.2 kmh N 5.0 mph8.0 kmh 30.11 in1019.6 mb 0.00 in0.0 mm 0.00 in0.0 mm 0.00 in0.0 mm
02:17 AM 40.7°F4.8°C 34.3°F1.3°C 78% 1.0 mph N1.6 kmh N 4.0 mph6.4 kmh 30.11 in1019.6 mb 0.00 in0.0 mm 0.00 in0.0 mm 0.00 in0.0 mm
02:12 AM 41.0°F5.0°C 34.6°F1.4°C 78% Calm Calm 4.0 mph6.4 kmh 30.12 in1020.0 mb 0.00 in0.0 mm 0.00 in0.0 mm 0.00 in0.0 mm
02:07 AM 41.2°F5.1°C 34.8°F1.6°C 78% Calm Calm 10.0 mph16.1 kmh 30.11 in1019.6 mb 0.00 in0.0 mm 0.00 in0.0 mm 0.00 in0.0 mm
02:02 AM 41.5°F5.3°C 34.8°F1.6°C 77% 1.0 mph N1.6 kmh N 10.0 mph16.1 kmh 30.11 in1019.6 mb 0.00 in0.0 mm 0.00 in0.0 mm 0.00 in0.0 mm
01:57 AM 42.0°F5.6°C 35.2°F1.8°C 77% 1.0 mph NNE1.6 kmh NNE 10.0 mph16.1 kmh 30.10 in1019.3 mb 0.00 in0.0 mm 0.00 in0.0 mm 0.00 in0.0 mm
01:52 AM 42.7°F5.9°C 36.3°F2.4°C 78% 5.0 mph NNE8.0 kmh NNE 10.0 mph16.1 kmh 30.10 in1019.3 mb 0.00 in0.0 mm 0.00 in0.0 mm 0.00 in0.0 mm
01:47 AM 43.2°F6.2°C 37.1°F2.8°C 79% 2.0 mph NE3.2 kmh NE 11.0 mph17.7 kmh 30.09 in1019.0 mb 0.00 in0.0 mm 0.00 in0.0 mm 0.00 in0.0 mm
01:42 AM 43.6°F6.4°C 37.5°F3.1°C 79% 2.0 mph N3.2 kmh N 11.0 mph17.7 kmh 30.09 in1019.0 mb 0.00 in0.0 mm 0.00 in0.0 mm 0.00 in0.0 mm
01:37 AM 44.0°F6.7°C 38.2°F3.4°C 80% 3.0 mph N4.8 kmh N 11.0 mph17.7 kmh 30.09 in1019.0 mb 0.00 in0.0 mm 0.00 in0.0 mm 0.00 in0.0 mm
01:32 AM 44.2°F6.8°C 38.4°F3.6°C 80% 1.0 mph NNW1.6 kmh NNW 11.0 mph17.7 kmh 30.09 in1019.0 mb 0.00 in0.0 mm 0.00 in0.0 mm 0.00 in0.0 mm
01:27 AM 44.4°F6.9°C 38.6°F3.7°C 80% Calm Calm 10.0 mph16.1 kmh 30.09 in1019.0 mb 0.00 in0.0 mm 0.00 in0.0 mm 0.00 in0.0 mm
01:22 AM 44.6°F7.0°C 39.1°F3.9°C 81% 6.0 mph NW9.7 kmh NW 10.0 mph16.1 kmh 30.10 in1019.3 mb 0.00 in0.0 mm 0.00 in0.0 mm 0.00 in0.0 mm
01:17 AM 44.7°F7.1°C 39.2°F4.0°C 81% 3.0 mph NW4.8 kmh NW 8.0 mph12.9 kmh 30.09 in1019.0 mb 0.00 in0.0 mm 0.00 in0.0 mm 0.00 in0.0 mm
01:12 AM 44.8°F7.1°C 39.3°F4.1°C 81% Calm Calm -- 30.09 in1019.0 mb 0.00 in0.0 mm 0.00 in0.0 mm 0.00 in0.0 mm
01:07 AM 44.8°F7.1°C 39.3°F4.1°C 81% Calm Calm -- 30.08 in1018.6 mb 0.00 in0.0 mm 0.00 in0.0 mm 0.00 in0.0 mm
01:02 AM 44.9°F7.2°C 39.4°F4.1°C 81% Calm Calm -- 30.08 in1018.6 mb 0.00 in0.0 mm 0.00 in0.0 mm 0.00 in0.0 mm
12:57 AM 44.9°F7.2°C 39.0°F3.9°C 80% 2.0 mph WSW3.2 kmh WSW 3.0 mph4.8 kmh 30.08 in1018.6 mb 0.00 in0.0 mm 0.00 in0.0 mm 0.00 in0.0 mm
12:52 AM 44.9°F7.2°C 39.0°F3.9°C 80% 2.0 mph WSW3.2 kmh WSW 3.0 mph4.8 kmh 30.08 in1018.6 mb 0.00 in0.0 mm 0.00 in0.0 mm 0.00 in0.0 mm
12:47 AM 45.0°F7.2°C 39.1°F3.9°C 80% 2.0 mph W3.2 kmh W 2.0 mph3.2 kmh 30.08 in1018.6 mb 0.00 in0.0 mm 0.00 in0.0 mm 0.00 in0.0 mm
12:42 AM 45.1°F7.3°C 39.2°F4.0°C 80% Calm Calm -- 30.08 in1018.6 mb 0.00 in0.0 mm 0.00 in0.0 mm 0.00 in0.0 mm
12:37 AM 45.0°F7.2°C 38.8°F3.8°C 79% Calm Calm -- 30.08 in1018.6 mb 0.00 in0.0 mm 0.00 in0.0 mm 0.00 in0.0 mm
12:32 AM 45.1°F7.3°C 38.9°F3.8°C 79% Calm Calm -- 30.08 in1018.6 mb 0.00 in0.0 mm 0.00 in0.0 mm 0.00 in0.0 mm
12:27 AM 45.1°F7.3°C 38.9°F3.8°C 79% Calm Calm -- 30.08 in1018.6 mb 0.00 in0.0 mm 0.00 in0.0 mm 0.00 in0.0 mm
12:22 AM 45.2°F7.3°C 39.0°F3.9°C 79% Calm Calm -- 30.08 in1018.6 mb 0.00 in0.0 mm 0.00 in0.0 mm 0.00 in0.0 mm
12:17 AM 45.3°F7.4°C 38.8°F3.8°C 78% Calm Calm -- 30.08 in1018.6 mb 0.00 in0.0 mm 0.00 in0.0 mm 0.00 in0.0 mm
12:12 AM 45.4°F7.4°C 38.9°F3.8°C 78% Calm Calm -- 30.08 in1018.6 mb 0.00 in0.0 mm 0.00 in0.0 mm 0.00 in0.0 mm
12:07 AM 45.5°F7.5°C 39.0°F3.9°C 78% Calm Calm -- 30.08 in1018.6 mb 0.00 in0.0 mm 0.00 in0.0 mm 0.00 in0.0 mm
12:02 AM 45.6°F7.6°C 39.1°F3.9°C 78% Calm Calm -- 30.08 in1018.6 mb 0.00 in0.0 mm 0.00 in0.0 mm 0.00 in0.0 mm